Time;durP1;ratioP1;P1;durP2;ratioP2;P2;SDS_P1;SDS_P2;PMS_P1;PMS_P2;Temp;Humidity;BMP_temperature;BMP_pressure;BME280_temperature;BME280_humidity;BME280_pressure;Samples;Min_cycle;Max_cycle;Signal;HPM_P1;HPM_P2
2022/02/09 00:02:31;;;;;;;8.20;6.47;;;9.40;92.00;;;;;;4924277;28;20483;-76
2022/02/09 00:10:07;;;;;;;8.35;6.60;;;9.40;92.20;;;;;;4924412;28;20529;-75
2022/02/09 00:13:37;;;;;;;8.30;6.18;;;9.40;92.30;;;;;;4923470;28;20031;-75
2022/02/09 00:18:10;;;;;;;9.77;5.85;;;9.30;92.20;;;;;;4924658;28;20108;-76
2022/02/09 00:39:36;;;;;;;8.63;6.22;;;9.20;91.60;;;;;;4922805;28;20046;-75
2022/02/09 01:43:17;;;;;;;8.85;4.00;;;9.30;89.60;;;;;;4921428;28;20245;-76
2022/02/09 01:55:50;;;;;;;9.63;4.50;;;9.30;89.20;;;;;;4920824;28;20115;-76
2022/02/09 01:58:17;;;;;;;8.80;4.93;;;9.20;89.10;;;;;;4921284;28;20633;-75
2022/02/09 02:00:42;;;;;;;8.10;5.00;;;9.20;89.10;;;;;;4920150;28;20091;-75
2022/02/09 02:03:08;;;;;;;8.48;5.18;;;9.20;89.10;;;;;;4920570;28;20048;-75
2022/02/09 02:05:37;;;;;;;9.40;5.35;;;9.20;89.10;;;;;;4924748;28;20479;-75
2022/02/09 02:08:05;;;;;;;10.13;6.18;;;9.30;89.00;;;;;;4920741;28;20036;-75
2022/02/09 02:11:10;;;;;;;8.25;5.20;;;9.30;88.90;;;;;;4935999;28;20505;-74
2022/02/09 02:13:53;;;;;;;9.20;5.45;;;9.20;89.00;;;;;;4922784;28;20390;-74
2022/02/09 02:16:28;;;;;;;7.60;4.35;;;9.20;88.70;;;;;;4922425;28;20039;-74
2022/02/09 02:19:02;;;;;;;;;;;9.20;88.60;;;;;;4921300;28;20592;-74
2022/02/09 02:24:28;;;;;;;7.20;3.90;;;9.20;88.20;;;;;;4921235;28;20767;-74
2022/02/09 02:30:06;;;;;;;6.35;3.35;;;9.20;88.10;;;;;;4920663;28;20419;-74
2022/02/09 03:10:49;;;;;;;3.50;2.03;;;9.30;86.80;;;;;;4921573;28;20638;-74
2022/02/09 03:13:16;;;;;;;2.15;1.67;;;9.30;86.80;;;;;;4915735;28;20403;-75
2022/02/09 03:15:53;;;;;;;4.45;2.30;;;9.30;86.70;;;;;;4921011;28;20090;-74
2022/02/09 03:21:23;;;;;;;3.58;2.17;;;9.30;86.60;;;;;;4926201;28;20443;-74
2022/02/09 03:47:43;;;;;;;8.70;5.78;;;9.30;87.00;;;;;;4933545;28;20726;-75
2022/02/09 03:57:46;;;;;;;11.90;8.30;;;9.30;87.50;;;;;;4917192;28;20040;-76
2022/02/09 04:00:22;;;;;;;11.93;8.65;;;9.30;87.50;;;;;;4925658;28;20078;-75
2022/02/09 04:02:53;;;;;;;14.55;9.90;;;9.30;87.60;;;;;;4923606;28;20902;-74
2022/02/09 04:05:19;;;;;;;13.40;9.88;;;9.30;87.80;;;;;;4927178;28;20028;-75
2022/02/09 04:07:46;;;;;;;14.13;10.10;;;9.20;88.00;;;;;;4927532;28;20042;-76
2022/02/09 04:10:19;;;;;;;14.65;10.68;;;9.20;88.20;;;;;;4924542;28;20043;-76
2022/02/09 04:13:01;;;;;;;14.55;10.27;;;9.20;88.10;;;;;;4939509;28;20047;-75
2022/02/09 04:37:17;;;;;;;13.25;9.75;;;9.20;88.20;;;;;;4920736;28;20174;-75
2022/02/09 04:39:47;;;;;;;13.60;10.48;;;9.20;88.10;;;;;;4926715;28;20040;-76
2022/02/09 04:45:29;;;;;;;12.10;9.45;;;9.10;88.20;;;;;;4923146;28;20039;-75
2022/02/09 04:58:08;;;;;;;12.32;9.40;;;9.20;87.90;;;;;;4925289;28;20091;-75
2022/02/09 05:27:35;;;;;;;16.77;11.23;;;9.10;87.40;;;;;;4910100;28;20272;-75
2022/02/09 05:30:06;;;;;;;15.27;11.10;;;9.10;87.50;;;;;;4913426;28;20040;-75
2022/02/09 05:32:32;;;;;;;15.93;11.98;;;9.10;87.40;;;;;;4916106;29;20040;-75
2022/02/09 05:34:57;;;;;;;14.00;10.73;;;9.20;87.30;;;;;;4914485;28;20046;-75
2022/02/09 05:37:23;;;;;;;15.75;11.05;;;9.10;87.40;;;;;;4920093;28;20028;-75
2022/02/09 05:39:48;;;;;;;16.17;11.43;;;9.10;87.40;;;;;;4911788;28;20027;-74
2022/02/09 05:42:14;;;;;;;14.90;10.82;;;9.20;87.30;;;;;;4916768;28;20070;-75
2022/02/09 05:44:40;;;;;;;16.00;11.38;;;9.20;87.20;;;;;;4914586;28;20521;-75
2022/02/09 05:48:02;;;;;;;16.17;11.65;;;9.20;87.10;;;;;;4917175;28;20040;-75
2022/02/09 05:50:22;;;;;;;16.83;12.00;;;9.20;87.00;;;;;;4916921;28;20059;-74
2022/02/09 05:58:12;;;;;;;15.55;11.43;;;9.20;87.10;;;;;;4916959;28;20040;-74
2022/02/09 06:00:40;;;;;;;17.10;12.07;;;9.10;87.00;;;;;;4908185;29;20140;-74
2022/02/09 06:03:05;;;;;;;16.35;12.18;;;9.10;86.90;;;;;;4916594;28;20090;-74
2022/02/09 06:05:31;;;;;;;19.02;12.63;;;9.10;86.80;;;;;;4918558;28;20043;-74
2022/02/09 06:07:57;;;;;;;17.27;11.93;;;9.20;86.70;;;;;;4911442;28;21048;-74
2022/02/09 06:10:28;;;;;;;15.27;11.43;;;9.20;86.70;;;;;;4914968;28;20115;-74
2022/02/09 06:13:09;;;;;;;17.35;12.43;;;9.10;86.70;;;;;;4949165;28;20415;-75
2022/02/09 06:20:58;;;;;;;16.08;11.07;;;9.20;86.50;;;;;;4912527;28;20074;-74
2022/02/09 06:23:27;;;;;;;14.95;11.10;;;9.10;86.60;;;;;;4918757;28;20028;-74
2022/02/09 06:25:53;;;;;;;15.52;11.13;;;9.10;86.70;;;;;;4917093;28;20043;-74
2022/02/09 06:28:19;;;;;;;15.32;10.65;;;9.10;86.70;;;;;;4934725;28;20044;-74
2022/02/09 06:30:44;;;;;;;14.23;10.32;;;9.10;86.60;;;;;;4920240;28;20047;-74
2022/02/09 06:33:10;;;;;;;15.32;10.90;;;9.10;86.50;;;;;;4917411;28;20058;-74
2022/02/09 06:35:36;;;;;;;15.27;10.90;;;9.10;86.70;;;;;;4934934;28;20480;-74
2022/02/09 06:38:03;;;;;;;14.30;9.75;;;9.10;86.70;;;;;;4921957;28;20115;-77
2022/02/09 06:40:29;;;;;;;15.88;10.48;;;9.10;86.90;;;;;;4923136;28;20510;-74
2022/02/09 06:42:55;;;;;;;14.30;10.32;;;9.10;86.90;;;;;;4926323;28;20040;-74
2022/02/09 06:45:25;;;;;;;15.95;10.10;;;9.10;86.90;;;;;;4921282;28;20046;-74
2022/02/09 06:47:51;;;;;;;13.43;9.68;;;9.10;87.00;;;;;;4922279;28;20032;-74
2022/02/09 06:50:41;;;;;;;14.40;10.43;;;9.00;86.90;;;;;;4912858;28;20099;-74
2022/02/09 06:53:14;;;;;;;13.85;9.68;;;9.00;87.00;;;;;;4921407;28;20495;-75
2022/02/09 06:55:47;;;;;;;12.40;9.18;;;9.00;86.90;;;;;;4951913;28;20066;-74
2022/02/09 06:58:22;;;;;;;13.80;9.88;;;8.90;87.00;;;;;;4921240;28;20042;-75
2022/02/09 07:00:48;;;;;;;13.88;9.65;;;9.00;86.80;;;;;;4921818;28;20040;-74
2022/02/09 07:03:14;;;;;;;17.38;9.93;;;9.00;86.70;;;;;;4920907;28;20047;-74
2022/02/09 07:05:40;;;;;;;13.63;9.15;;;9.00;86.60;;;;;;4921343;28;20036;-74
2022/02/09 07:08:06;;;;;;;13.40;8.90;;;8.90;86.40;;;;;;4931407;28;20176;-74
2022/02/09 07:10:32;;;;;;;12.30;8.35;;;8.90;86.50;;;;;;4921917;28;20471;-73
2022/02/09 07:12:57;;;;;;;13.10;9.02;;;8.90;86.10;;;;;;4920000;28;20364;-74
2022/02/09 07:15:30;;;;;;;12.85;8.57;;;8.90;86.10;;;;;;4920244;28;20044;-73
2022/02/09 07:17:58;;;;;;;14.65;9.43;;;8.90;86.00;;;;;;4920971;28;20032;-74
2022/02/09 07:20:29;;;;;;;14.13;9.57;;;8.90;86.10;;;;;;4921855;28;20509;-74
2022/02/09 07:22:58;;;;;;;13.73;10.10;;;8.90;86.10;;;;;;4937166;28;20455;-73
2022/02/09 07:25:30;;;;;;;15.50;10.32;;;8.90;86.20;;;;;;4935712;28;20054;-74
2022/02/09 07:27:55;;;;;;;14.00;9.65;;;8.90;86.20;;;;;;4921003;28;20056;-74
2022/02/09 07:30:26;;;;;;;13.35;9.25;;;8.90;86.20;;;;;;4919971;28;20121;-75
2022/02/09 07:32:56;;;;;;;14.23;9.57;;;8.90;86.20;;;;;;4924595;28;20054;-74
2022/02/09 07:35:22;;;;;;;14.55;9.25;;;8.90;86.20;;;;;;4921147;28;20055;-74
2022/02/09 07:37:49;;;;;;;15.90;10.52;;;8.90;86.20;;;;;;4920674;28;20036;-74
2022/02/09 07:40:15;;;;;;;13.52;9.57;;;8.90;86.20;;;;;;4920301;28;20049;-74
2022/02/09 07:43:10;;;;;;;15.80;10.45;;;9.00;86.20;;;;;;4920501;28;20118;-74
2022/02/09 07:46:12;;;;;;;13.82;10.43;;;9.00;86.10;;;;;;4918643;28;20181;-74
2022/02/09 07:54:02;;;;;;;14.35;10.05;;;8.90;86.20;;;;;;4915378;28;20043;-75
2022/02/09 07:56:37;;;;;;;18.65;11.73;;;8.90;86.20;;;;;;4909528;28;20036;-75
2022/02/09 07:59:06;;;;;;;18.02;10.88;;;9.00;86.20;;;;;;4909503;28;20123;-75
2022/02/09 08:01:33;;;;;;;17.98;10.93;;;9.00;86.20;;;;;;4933298;28;20042;-74
2022/02/09 08:03:58;;;;;;;18.67;11.88;;;8.90;86.30;;;;;;4947384;28;20047;-75
2022/02/09 08:06:24;;;;;;;17.60;11.43;;;9.00;86.40;;;;;;4925610;28;20344;-74
2022/02/09 08:08:52;;;;;;;17.02;11.45;;;9.00;86.30;;;;;;4924174;28;20309;-74
2022/02/09 08:23:32;;;;;;;19.35;12.60;;;9.10;85.90;;;;;;4923472;28;20034;-70
2022/02/09 08:27:43;;;;;;;20.92;12.88;;;9.10;86.00;;;;;;4922084;28;20040;-71
2022/02/09 08:33:05;;;;;;;19.52;13.13;;;9.20;85.80;;;;;;4932829;28;20186;-70
2022/02/09 08:35:31;;;;;;;20.70;13.93;;;9.30;85.80;;;;;;4928012;28;20495;-69
2022/02/09 08:37:58;;;;;;;20.55;13.75;;;9.30;85.80;;;;;;4920877;28;20043;-71
2022/02/09 08:40:26;;;;;;;23.30;13.73;;;9.30;85.90;;;;;;4930515;28;20154;-70
2022/02/09 08:42:51;;;;;;;19.48;13.65;;;9.40;85.70;;;;;;4921471;28;20043;-71
2022/02/09 08:45:17;;;;;;;20.50;13.90;;;9.40;85.60;;;;;;4921225;28;20044;-70
2022/02/09 08:47:43;;;;;;;23.98;13.95;;;9.40;85.80;;;;;;4915239;29;20043;-70
2022/02/09 08:50:10;;;;;;;19.95;13.60;;;9.50;85.50;;;;;;4917550;28;20217;-70
2022/02/09 08:52:36;;;;;;;20.80;13.05;;;9.50;85.50;;;;;;4922993;28;20511;-70
2022/02/09 08:55:03;;;;;;;20.20;13.60;;;9.60;85.40;;;;;;4924956;28;20036;-72
2022/02/09 08:57:29;;;;;;;21.73;13.85;;;9.60;85.00;;;;;;4920776;28;20501;-70
2022/02/09 08:59:56;;;;;;;19.67;13.30;;;9.60;85.10;;;;;;4923182;28;20044;-70
2022/02/09 09:02:30;;;;;;;22.08;14.02;;;9.60;85.00;;;;;;4921670;28;20042;-72
2022/02/09 09:05:06;;;;;;;21.83;12.90;;;9.60;85.10;;;;;;4931110;28;20039;-70
2022/02/09 09:07:35;;;;;;;20.85;13.00;;;9.80;84.50;;;;;;4915279;28;20086;-69
2022/02/09 09:10:14;;;;;;;22.20;13.45;;;9.70;84.60;;;;;;4917409;28;20390;-71
2022/02/09 10:14:08;;;;;;;37.33;28.02;;;10.60;82.20;;;;;;4922516;28;20042;-71
2022/02/09 10:33:58;;;;;;;28.80;22.50;;;10.80;81.50;;;;;;4927344;28;20124;-73
2022/02/09 10:36:24;;;;;;;32.55;26.95;;;10.70;81.60;;;;;;4899026;29;20083;-73
2022/02/09 10:39:11;;;;;;;24.60;21.10;;;10.90;81.70;;;;;;4899771;28;20131;-72
2022/02/09 10:41:50;;;;;;;24.70;19.13;;;11.10;81.30;;;;;;4920639;28;20457;-72
2022/02/09 10:44:20;;;;;;;18.33;13.15;;;11.40;80.40;;;;;;4919280;28;20059;-73
2022/02/09 10:46:53;;;;;;;20.80;16.75;;;11.70;79.50;;;;;;4921879;28;20044;-73
2022/02/09 10:49:22;;;;;;;19.40;13.18;;;11.70;79.00;;;;;;4919957;28;20040;-72
2022/02/09 10:54:19;;;;;;;15.63;10.73;;;11.60;78.40;;;;;;4918628;28;20117;-74
2022/02/09 10:56:47;;;;;;;16.08;11.43;;;11.70;78.10;;;;;;4950519;28;20058;-72
2022/02/09 10:59:19;;;;;;;15.02;10.57;;;11.70;78.40;;;;;;4919340;28;20440;-73
2022/02/09 11:01:45;;;;;;;18.00;10.18;;;11.70;78.10;;;;;;4920966;28;20032;-72
2022/02/09 11:04:12;;;;;;;15.80;10.88;;;11.70;78.20;;;;;;4949044;28;20075;-72
2022/02/09 11:06:41;;;;;;;16.98;12.20;;;11.80;78.40;;;;;;4918958;28;20523;-73
2022/02/09 11:09:16;;;;;;;12.65;8.88;;;12.00;78.10;;;;;;4916665;28;20498;-71
2022/02/09 11:11:43;;;;;;;14.75;9.95;;;11.90;77.30;;;;;;4920897;28;20091;-72
2022/02/09 11:14:15;;;;;;;18.67;12.02;;;11.90;77.30;;;;;;4916648;28;20044;-72
2022/02/09 11:16:54;;;;;;;21.75;15.05;;;12.10;77.50;;;;;;4919814;28;20510;-72
2022/02/09 11:19:20;;;;;;;17.13;11.82;;;12.00;77.30;;;;;;4918734;28;20172;-72
2022/02/09 11:21:51;;;;;;;18.10;13.13;;;11.90;78.00;;;;;;4920695;28;20043;-73
2022/02/09 11:24:22;;;;;;;16.77;11.48;;;11.90;78.30;;;;;;4918787;28;20039;-73
2022/02/09 11:27:04;;;;;;;17.77;12.50;;;12.00;77.60;;;;;;4918104;28;20445;-73
2022/02/09 11:35:20;;;;;;;17.45;11.77;;;12.20;77.50;;;;;;4941161;28;20586;-73
2022/02/09 11:43:33;;;;;;;16.75;10.85;;;12.60;76.30;;;;;;4912910;28;20075;-72
2022/02/09 12:10:53;;;;;;;17.45;10.18;;;13.10;73.80;;;;;;4923373;28;20058;-74
2022/02/09 12:14:21;;;;;;;15.60;10.23;;;13.20;73.70;;;;;;4931331;28;20038;-73
2022/02/09 12:19:36;;;;;;;15.25;9.90;;;13.30;74.10;;;;;;4921377;28;20044;-75
2022/02/09 12:22:13;;;;;;;18.35;11.13;;;13.50;73.00;;;;;;4917035;28;20274;-72
2022/02/09 12:24:40;;;;;;;16.73;10.27;;;13.50;72.90;;;;;;4920515;28;20456;-75
2022/02/09 12:27:15;;;;;;;14.75;10.18;;;13.40;73.10;;;;;;4929026;28;20142;-74
2022/02/09 12:29:46;;;;;;;15.57;8.45;;;13.50;73.10;;;;;;4928499;28;20051;-72
2022/02/09 12:32:15;;;;;;;13.23;6.47;;;13.40;72.30;;;;;;4930255;28;20338;-71
2022/02/09 12:34:53;;;;;;;13.65;7.35;;;13.10;72.10;;;;;;4926290;28;20051;-73
2022/02/09 12:37:19;;;;;;;12.85;7.05;;;13.10;72.80;;;;;;4915548;28;20044;-73
2022/02/09 12:39:56;;;;;;;12.25;7.70;;;13.50;72.70;;;;;;4919479;28;20119;-73
2022/02/09 12:42:27;;;;;;;14.60;7.80;;;13.60;72.00;;;;;;4922225;28;20035;-74
2022/02/09 12:45:02;;;;;;;10.07;6.60;;;13.60;71.40;;;;;;4916369;28;20035;-73
2022/02/09 12:48:02;;;;;;;13.68;6.25;;;13.70;70.80;;;;;;4917163;28;20043;-73
2022/02/09 12:50:41;;;;;;;12.60;6.38;;;13.70;71.10;;;;;;4914395;28;20092;-74
2022/02/09 12:53:08;;;;;;;11.20;6.35;;;13.80;69.90;;;;;;4920301;28;20067;-75
2022/02/09 12:55:38;;;;;;;12.57;6.50;;;13.90;70.10;;;;;;4920094;28;20609;-74
2022/02/09 12:58:08;;;;;;;9.20;5.93;;;13.90;69.70;;;;;;4914699;28;20047;-75
2022/02/09 13:00:48;;;;;;;11.45;6.20;;;13.80;69.60;;;;;;4922483;28;20079;-74
2022/02/09 13:03:17;;;;;;;10.90;6.70;;;13.60;70.70;;;;;;4919258;28;20051;-74
2022/02/09 13:05:43;;;;;;;11.85;6.25;;;13.50;71.10;;;;;;4910314;28;20803;-72
2022/02/09 13:08:11;;;;;;;10.93;6.55;;;13.20;71.50;;;;;;4925607;28;20031;-73
2022/02/09 13:10:38;;;;;;;10.00;6.28;;;13.10;71.60;;;;;;4919767;28;20134;-73
2022/02/09 13:13:11;;;;;;;9.73;6.32;;;13.10;71.90;;;;;;4917619;28;20039;-75
2022/02/09 13:15:52;;;;;;;11.05;7.10;;;13.00;72.30;;;;;;4916367;28;20047;-73
2022/02/09 14:23:44;;;;;;;10.65;6.75;;;12.10;75.10;;;;;;4912531;28;20032;-77
2022/02/09 14:57:03;;;;;;;11.07;8.00;;;11.80;76.80;;;;;;4924311;28;20040;-77
2022/02/09 15:02:05;;;;;;;12.30;7.82;;;11.90;76.70;;;;;;4916233;28;20031;-77
2022/02/09 15:07:42;;;;;;;13.32;7.72;;;12.00;76.50;;;;;;4918369;28;20529;-75
2022/02/09 15:10:07;;;;;;;16.15;9.15;;;12.00;76.60;;;;;;4915391;28;20529;-74
2022/02/09 15:13:01;;;;;;;15.18;8.27;;;12.10;76.20;;;;;;4916616;28;20039;-76
2022/02/09 15:23:08;;;;;;;15.23;8.57;;;12.10;76.00;;;;;;4912386;28;20503;-76
2022/02/09 15:25:35;;;;;;;15.15;9.02;;;12.00;76.30;;;;;;4918906;28;20110;-73
2022/02/09 15:28:03;;;;;;;12.82;7.97;;;11.90;76.30;;;;;;4912293;28;20106;-75
2022/02/09 15:30:36;;;;;;;14.23;8.93;;;11.90;76.50;;;;;;4918870;28;20055;-75
2022/02/09 15:33:04;;;;;;;13.90;9.25;;;11.90;76.50;;;;;;4918690;28;20044;-75
2022/02/09 15:35:34;;;;;;;16.50;10.27;;;11.90;76.70;;;;;;4931554;28;20039;-75
2022/02/09 15:38:07;;;;;;;13.20;7.97;;;11.90;76.90;;;;;;4918267;28;20605;-73
2022/02/09 16:05:40;;;;;;;17.52;10.57;;;11.70;77.20;;;;;;4920062;28;20148;-74
2022/02/09 16:23:47;;;;;;;14.15;9.23;;;11.60;77.30;;;;;;4919108;28;20058;-75
2022/02/09 16:33:12;;;;;;;16.10;9.10;;;11.50;77.20;;;;;;4914880;28;20036;-76
2022/02/09 16:37:24;;;;;;;13.68;9.88;;;11.40;77.60;;;;;;4916062;28;20123;-76
2022/02/09 16:45:16;;;;;;;17.00;9.95;;;11.30;78.30;;;;;;4915600;28;20038;-73
2022/02/09 16:50:15;;;;;;;16.35;9.98;;;11.30;78.60;;;;;;4915085;28;20039;-77
2022/02/09 16:52:55;;;;;;;14.27;10.10;;;11.30;78.80;;;;;;4912843;28;20499;-75
2022/02/09 17:19:39;;;;;;;13.35;10.88;;;10.50;80.40;;;;;;4911692;28;20118;-76
2022/02/09 17:22:06;;;;;;;14.80;11.10;;;10.40;80.60;;;;;;4911975;28;20057;-74
2022/02/09 17:24:31;;;;;;;14.48;11.05;;;10.30;80.90;;;;;;4905492;28;20043;-76
2022/02/09 17:26:57;;;;;;;15.55;12.65;;;10.20;81.10;;;;;;4909305;28;20036;-78
2022/02/09 17:29:35;;;;;;;13.57;11.40;;;10.10;81.30;;;;;;4907846;28;20052;-78
2022/02/09 17:32:10;;;;;;;15.15;11.30;;;10.10;81.50;;;;;;4908892;28;20183;-76
2022/02/09 17:53:31;;;;;;;14.98;12.30;;;9.60;82.70;;;;;;4912102;28;20573;-74
2022/02/09 17:56:02;;;;;;;17.23;12.43;;;9.60;82.80;;;;;;4911631;28;20062;-74
2022/02/09 17:58:45;;;;;;;17.27;12.48;;;9.50;83.00;;;;;;4916789;28;20035;-72
2022/02/09 18:01:11;;;;;;;16.17;13.38;;;9.40;83.30;;;;;;4915377;28;20050;-85
2022/02/09 18:03:37;;;;;;;18.65;12.95;;;9.40;83.50;;;;;;4929827;28;20040;-81
2022/02/09 18:06:41;;;;;;;23.15;18.25;;;9.30;83.70;;;;;;4915324;28;20472;-82
2022/02/09 18:09:02;;;;;;;24.48;20.13;;;9.20;83.80;;;;;;4925861;28;20043;-84
2022/02/09 18:11:58;;;;;;;24.70;22.10;;;9.20;84.00;;;;;;4919810;28;20040;-81
2022/02/09 18:33:40;;;;;;;26.52;20.45;;;8.80;85.20;;;;;;4909776;28;20091;-81
2022/02/09 18:39:40;;;;;;;24.42;19.58;;;8.70;85.30;;;;;;4913087;28;20047;-80
2022/02/09 18:45:23;;;;;;;19.30;15.82;;;8.60;85.50;;;;;;4907186;28;20518;-84
2022/02/09 19:06:00;;;;;;;32.05;26.75;;;8.90;85.20;;;;;;4913328;28;20044;-84
2022/02/09 19:16:55;;;;;;;32.80;28.05;;;8.80;85.50;;;;;;4913759;28;20527;-83
2022/02/09 19:41:14;;;;;;;34.22;28.65;;;8.70;86.40;;;;;;4914183;28;20039;-83
2022/02/09 19:56:46;;;;;;;30.10;22.38;;;8.70;86.40;;;;;;4917756;28;20086;-87
2022/02/09 19:59:17;;;;;;;36.80;25.08;;;8.70;86.60;;;;;;4920124;28;20036;-83
2022/02/09 20:01:44;;;;;;;38.50;29.02;;;8.70;86.50;;;;;;4924504;28;20071;-89
2022/02/09 20:04:10;;;;;;;39.20;29.80;;;8.70;86.60;;;;;;4931706;28;20054;-84
2022/02/09 20:06:36;;;;;;;35.00;27.15;;;8.80;86.40;;;;;;4928703;28;20044;-80
2022/02/09 20:09:04;;;;;;;34.65;26.67;;;8.70;86.40;;;;;;4930432;28;20054;-87
2022/02/09 20:11:30;;;;;;;35.08;25.80;;;8.80;86.60;;;;;;4920611;28;20032;-82
2022/02/09 20:13:55;;;;;;;33.30;25.70;;;8.70;86.50;;;;;;4923480;28;20102;-84
2022/02/09 20:16:22;;;;;;;29.95;23.23;;;8.70;86.60;;;;;;4933970;28;20143;-83
2022/02/09 20:18:52;;;;;;;27.80;23.23;;;8.70;86.60;;;;;;4925826;28;20387;-82
2022/02/09 20:21:21;;;;;;;29.77;22.27;;;8.70;86.70;;;;;;4926821;28;21252;-82
2022/02/09 20:23:48;;;;;;;30.63;22.35;;;8.70;86.60;;;;;;4933170;28;20427;-81
2022/02/09 20:26:14;;;;;;;34.25;25.20;;;8.70;86.60;;;;;;4931064;28;20040;-85
2022/02/09 20:28:46;;;;;;;31.92;24.77;;;8.70;86.70;;;;;;4928947;28;20050;-83
2022/02/09 20:31:16;;;;;;;30.35;24.58;;;8.70;86.80;;;;;;4925862;28;20114;-83
2022/02/09 20:33:48;;;;;;;30.60;25.48;;;8.70;86.70;;;;;;4926880;28;20127;-83
2022/02/09 20:36:16;;;;;;;32.92;24.52;;;8.70;86.70;;;;;;4928871;28;20515;-84
2022/02/09 20:38:45;;;;;;;31.15;23.83;;;8.70;86.80;;;;;;4918521;29;20710;-82
2022/02/09 20:41:12;;;;;;;31.10;24.23;;;8.70;86.90;;;;;;4931977;28;20035;-80
2022/02/09 20:43:43;;;;;;;30.70;25.73;;;8.70;86.90;;;;;;4942299;28;20079;-88
2022/02/09 20:46:09;;;;;;;32.45;26.23;;;8.70;86.80;;;;;;4930831;28;20114;-79
2022/02/09 20:48:35;;;;;;;40.15;29.23;;;8.70;86.90;;;;;;4935469;28;20046;-83
2022/02/09 20:51:01;;;;;;;44.40;31.58;;;8.70;87.00;;;;;;4943250;28;20093;-82
2022/02/09 20:53:29;;;;;;;36.90;28.98;;;8.70;87.10;;;;;;4929554;28;20097;-81
2022/02/09 20:55:56;;;;;;;43.03;30.10;;;8.70;87.10;;;;;;4937212;28;20058;-82
2022/02/09 20:58:22;;;;;;;42.65;31.10;;;8.70;87.20;;;;;;4934524;28;20070;-81
2022/02/09 21:01:04;;;;;;;32.72;26.58;;;8.70;87.20;;;;;;4945694;28;20434;-81
2022/02/09 21:08:59;;;;;;;34.45;25.63;;;8.80;87.20;;;;;;4924454;28;20170;-83
2022/02/09 21:16:33;;;;;;;28.25;22.80;;;8.80;87.20;;;;;;4928467;28;20042;-80
2022/02/09 21:53:59;;;;;;;26.80;21.83;;;9.00;87.10;;;;;;4930479;28;20649;-82
2022/02/09 22:20:35;;;;;;;28.38;21.95;;;9.00;87.00;;;;;;4913889;28;20233;-79
2022/02/09 22:23:05;;;;;;;27.85;21.17;;;9.00;87.00;;;;;;4923609;28;20035;-87
2022/02/09 22:28:06;;;;;;;25.83;21.40;;;9.00;87.20;;;;;;4924777;28;20084;-81
2022/02/09 22:55:28;;;;;;;24.10;17.48;;;8.90;86.60;;;;;;4929833;28;20039;-79
2022/02/09 22:58:02;;;;;;;22.65;17.45;;;8.90;86.60;;;;;;4929795;28;20043;-84
2022/02/09 23:01:07;;;;;;;23.27;17.83;;;8.90;86.60;;;;;;4927162;28;20046;-83
2022/02/09 23:03:43;;;;;;;23.48;17.05;;;8.90;86.60;;;;;;4926294;28;20056;-87
2022/02/09 23:16:43;;;;;;;23.65;18.42;;;8.80;86.80;;;;;;4969014;28;20039;-82
2022/02/09 23:27:22;;;;;;;19.60;15.98;;;8.80;86.90;;;;;;4969568;28;20046;-82
2022/02/09 23:57:20;;;;;;;29.17;20.60;;;8.70;87.30;;;;;;4957365;28;20707;-82
